sensor_id;sensor_type;location;lat;lon;timestamp;P1;durP1;ratioP1;P2;durP2;ratioP2
71959;SDS011;59832;51.146;14.024;2023-05-20T04:02:32;35.45;;;22.02;;
71959;SDS011;59832;51.146;14.024;2023-05-20T04:04:58;34.92;;;21.52;;
71959;SDS011;59832;51.146;14.024;2023-05-20T04:07:26;35.60;;;22.10;;
71959;SDS011;59832;51.146;14.024;2023-05-20T04:09:55;34.03;;;21.65;;
71959;SDS011;59832;51.146;14.024;2023-05-20T04:12:21;32.47;;;21.23;;
71959;SDS011;59832;51.146;14.024;2023-05-20T04:14:47;34.22;;;21.75;;
71959;SDS011;59832;51.146;14.024;2023-05-20T04:17:15;35.35;;;21.50;;
71959;SDS011;59832;51.146;14.024;2023-05-20T04:19:41;33.65;;;22.35;;
71959;SDS011;59832;51.146;14.024;2023-05-20T04:22:08;33.15;;;21.73;;
71959;SDS011;59832;51.146;14.024;2023-05-20T04:24:35;33.58;;;21.10;;
71959;SDS011;59832;51.146;14.024;2023-05-20T04:27:03;32.60;;;21.30;;
71959;SDS011;59832;51.146;14.024;2023-05-20T04:29:29;34.63;;;21.52;;
71959;SDS011;59832;51.146;14.024;2023-05-20T04:31:59;34.30;;;21.50;;
71959;SDS011;59832;51.146;14.024;2023-05-20T04:34:29;39.40;;;23.42;;
71959;SDS011;59832;51.146;14.024;2023-05-20T04:36:55;32.22;;;22.30;;
71959;SDS011;59832;51.146;14.024;2023-05-20T04:39:23;35.65;;;21.80;;
71959;SDS011;59832;51.146;14.024;2023-05-20T04:41:49;37.28;;;23.45;;
71959;SDS011;59832;51.146;14.024;2023-05-20T04:44:16;35.17;;;23.30;;
71959;SDS011;59832;51.146;14.024;2023-05-20T04:46:42;38.08;;;24.13;;
71959;SDS011;59832;51.146;14.024;2023-05-20T04:49:09;38.00;;;23.80;;
71959;SDS011;59832;51.146;14.024;2023-05-20T04:51:36;40.97;;;24.95;;
71959;SDS011;59832;51.146;14.024;2023-05-20T04:54:02;39.22;;;24.05;;
71959;SDS011;59832;51.146;14.024;2023-05-20T04:56:29;36.42;;;24.17;;
71959;SDS011;59832;51.146;14.024;2023-05-20T04:58:55;40.47;;;25.20;;
71959;SDS011;59832;51.146;14.024;2023-05-20T05:01:22;39.38;;;24.42;;
71959;SDS011;59832;51.146;14.024;2023-05-20T05:03:48;58.75;;;39.85;;
71959;SDS011;59832;51.146;14.024;2023-05-20T05:06:15;43.43;;;26.17;;
71959;SDS011;59832;51.146;14.024;2023-05-20T05:08:41;42.80;;;26.35;;
71959;SDS011;59832;51.146;14.024;2023-05-20T05:11:08;42.45;;;27.55;;
71959;SDS011;59832;51.146;14.024;2023-05-20T05:13:34;45.88;;;26.77;;
71959;SDS011;59832;51.146;14.024;2023-05-20T05:16:01;47.38;;;27.27;;
71959;SDS011;59832;51.146;14.024;2023-05-20T05:18:28;45.92;;;27.20;;
71959;SDS011;59832;51.146;14.024;2023-05-20T05:20:59;45.08;;;26.50;;
71959;SDS011;59832;51.146;14.024;2023-05-20T05:23:26;43.85;;;26.08;;
71959;SDS011;59832;51.146;14.024;2023-05-20T05:25:53;44.05;;;26.55;;
71959;SDS011;59832;51.146;14.024;2023-05-20T05:28:20;43.25;;;27.05;;
71959;SDS011;59832;51.146;14.024;2023-05-20T05:30:46;39.20;;;25.70;;
71959;SDS011;59832;51.146;14.024;2023-05-20T05:33:13;46.70;;;28.23;;
71959;SDS011;59832;51.146;14.024;2023-05-20T05:35:41;47.90;;;27.50;;
71959;SDS011;59832;51.146;14.024;2023-05-20T05:38:08;46.40;;;27.70;;
71959;SDS011;59832;51.146;14.024;2023-05-20T05:40:35;47.75;;;26.63;;
71959;SDS011;59832;51.146;14.024;2023-05-20T05:43:02;47.83;;;27.30;;
71959;SDS011;59832;51.146;14.024;2023-05-20T05:45:28;40.13;;;26.85;;
71959;SDS011;59832;51.146;14.024;2023-05-20T05:47:55;46.47;;;27.42;;
71959;SDS011;59832;51.146;14.024;2023-05-20T05:50:21;44.95;;;27.13;;
71959;SDS011;59832;51.146;14.024;2023-05-20T05:52:48;41.90;;;25.98;;
71959;SDS011;59832;51.146;14.024;2023-05-20T05:55:15;46.63;;;27.05;;
71959;SDS011;59832;51.146;14.024;2023-05-20T05:57:41;44.63;;;27.48;;
71959;SDS011;59832;51.146;14.024;2023-05-20T06:00:08;44.60;;;27.33;;
71959;SDS011;59832;51.146;14.024;2023-05-20T06:02:35;45.65;;;26.75;;
71959;SDS011;59832;51.146;14.024;2023-05-20T06:05:02;43.55;;;26.70;;
71959;SDS011;59832;51.146;14.024;2023-05-20T06:07:29;43.33;;;26.23;;
71959;SDS011;59832;51.146;14.024;2023-05-20T06:09:56;43.13;;;26.02;;
71959;SDS011;59832;51.146;14.024;2023-05-20T06:12:22;45.38;;;27.45;;
71959;SDS011;59832;51.146;14.024;2023-05-20T06:14:49;49.33;;;27.33;;
71959;SDS011;59832;51.146;14.024;2023-05-20T06:17:15;43.42;;;25.83;;
71959;SDS011;59832;51.146;14.024;2023-05-20T06:19:42;46.25;;;27.70;;
71959;SDS011;59832;51.146;14.024;2023-05-20T06:22:08;43.33;;;27.30;;
71959;SDS011;59832;51.146;14.024;2023-05-20T06:24:34;42.33;;;27.35;;
71959;SDS011;59832;51.146;14.024;2023-05-20T06:27:01;41.40;;;26.13;;
71959;SDS011;59832;51.146;14.024;2023-05-20T06:29:28;42.13;;;25.92;;
71959;SDS011;59832;51.146;14.024;2023-05-20T06:31:55;41.58;;;26.58;;
71959;SDS011;59832;51.146;14.024;2023-05-20T06:34:21;44.37;;;26.40;;
71959;SDS011;59832;51.146;14.024;2023-05-20T06:36:48;42.08;;;26.70;;
71959;SDS011;59832;51.146;14.024;2023-05-20T06:39:14;42.75;;;27.83;;
71959;SDS011;59832;51.146;14.024;2023-05-20T06:41:41;40.70;;;27.03;;
71959;SDS011;59832;51.146;14.024;2023-05-20T06:44:08;40.87;;;26.93;;
71959;SDS011;59832;51.146;14.024;2023-05-20T06:46:34;44.60;;;27.80;;
71959;SDS011;59832;51.146;14.024;2023-05-20T06:49:01;42.80;;;26.92;;
71959;SDS011;59832;51.146;14.024;2023-05-20T06:51:28;44.83;;;27.20;;
71959;SDS011;59832;51.146;14.024;2023-05-20T06:53:54;44.63;;;27.42;;
71959;SDS011;59832;51.146;14.024;2023-05-20T06:56:21;40.92;;;26.83;;
71959;SDS011;59832;51.146;14.024;2023-05-20T06:58:48;40.77;;;26.47;;
71959;SDS011;59832;51.146;14.024;2023-05-20T07:01:14;41.78;;;25.85;;
71959;SDS011;59832;51.146;14.024;2023-05-20T07:03:43;41.05;;;25.58;;
71959;SDS011;59832;51.146;14.024;2023-05-20T07:06:09;42.40;;;26.63;;
71959;SDS011;59832;51.146;14.024;2023-05-20T07:08:36;40.97;;;25.92;;
71959;SDS011;59832;51.146;14.024;2023-05-20T07:11:03;39.55;;;25.52;;
71959;SDS011;59832;51.146;14.024;2023-05-20T07:13:29;39.55;;;24.95;;
71959;SDS011;59832;51.146;14.024;2023-05-20T07:15:56;42.77;;;26.03;;
71959;SDS011;59832;51.146;14.024;2023-05-20T07:18:22;43.67;;;26.90;;
71959;SDS011;59832;51.146;14.024;2023-05-20T07:20:49;41.42;;;25.58;;
71959;SDS011;59832;51.146;14.024;2023-05-20T07:23:15;37.22;;;24.73;;
71959;SDS011;59832;51.146;14.024;2023-05-20T07:25:42;37.70;;;24.20;;
71959;SDS011;59832;51.146;14.024;2023-05-20T07:28:09;39.17;;;24.67;;
71959;SDS011;59832;51.146;14.024;2023-05-20T07:30:35;39.10;;;24.23;;
71959;SDS011;59832;51.146;14.024;2023-05-20T07:33:01;41.38;;;24.23;;
71959;SDS011;59832;51.146;14.024;2023-05-20T07:35:28;38.72;;;24.27;;
71959;SDS011;59832;51.146;14.024;2023-05-20T07:37:55;36.15;;;23.42;;
71959;SDS011;59832;51.146;14.024;2023-05-20T07:40:21;35.05;;;24.02;;
71959;SDS011;59832;51.146;14.024;2023-05-20T07:42:48;40.53;;;23.90;;
71959;SDS011;59832;51.146;14.024;2023-05-20T07:45:14;42.92;;;24.73;;
71959;SDS011;59832;51.146;14.024;2023-05-20T07:47:41;40.93;;;23.90;;
71959;SDS011;59832;51.146;14.024;2023-05-20T07:50:07;41.75;;;24.08;;
71959;SDS011;59832;51.146;14.024;2023-05-20T07:52:34;38.95;;;24.00;;
71959;SDS011;59832;51.146;14.024;2023-05-20T07:55:20;38.70;;;23.63;;
71959;SDS011;59832;51.146;14.024;2023-05-20T07:57:47;38.35;;;23.02;;
71959;SDS011;59832;51.146;14.024;2023-05-20T08:00:13;34.22;;;22.25;;
71959;SDS011;59832;51.146;14.024;2023-05-20T08:02:41;36.85;;;22.40;;
71959;SDS011;59832;51.146;14.024;2023-05-20T08:05:08;33.55;;;22.52;;
71959;SDS011;59832;51.146;14.024;2023-05-20T08:07:34;35.95;;;22.45;;
71959;SDS011;59832;51.146;14.024;2023-05-20T08:10:01;37.47;;;22.83;;
71959;SDS011;59832;51.146;14.024;2023-05-20T08:12:29;32.50;;;21.48;;
71959;SDS011;59832;51.146;14.024;2023-05-20T08:14:55;33.25;;;21.85;;
71959;SDS011;59832;51.146;14.024;2023-05-20T08:17:21;32.97;;;20.55;;
71959;SDS011;59832;51.146;14.024;2023-05-20T08:19:48;34.17;;;22.40;;
71959;SDS011;59832;51.146;14.024;2023-05-20T08:22:15;33.38;;;23.23;;
71959;SDS011;59832;51.146;14.024;2023-05-20T08:24:42;34.50;;;21.02;;
71959;SDS011;59832;51.146;14.024;2023-05-20T08:27:08;33.43;;;20.37;;
71959;SDS011;59832;51.146;14.024;2023-05-20T08:29:34;34.28;;;21.92;;
71959;SDS011;59832;51.146;14.024;2023-05-20T08:32:01;36.28;;;23.55;;
71959;SDS011;59832;51.146;14.024;2023-05-20T08:34:28;39.55;;;23.08;;
71959;SDS011;59832;51.146;14.024;2023-05-20T08:36:54;34.38;;;20.92;;
71959;SDS011;59832;51.146;14.024;2023-05-20T08:39:23;34.88;;;21.88;;
71959;SDS011;59832;51.146;14.024;2023-05-20T08:41:50;32.13;;;21.27;;
71959;SDS011;59832;51.146;14.024;2023-05-20T08:44:18;34.38;;;21.40;;
71959;SDS011;59832;51.146;14.024;2023-05-20T08:46:46;34.78;;;21.50;;
71959;SDS011;59832;51.146;14.024;2023-05-20T08:51:40;31.52;;;21.27;;
71959;SDS011;59832;51.146;14.024;2023-05-20T08:54:08;32.92;;;20.65;;
71959;SDS011;59832;51.146;14.024;2023-05-20T08:56:35;31.35;;;20.10;;
71959;SDS011;59832;51.146;14.024;2023-05-20T08:59:02;30.35;;;19.58;;
71959;SDS011;59832;51.146;14.024;2023-05-20T09:01:29;33.05;;;21.02;;
71959;SDS011;59832;51.146;14.024;2023-05-20T09:03:55;35.83;;;22.08;;
71959;SDS011;59832;51.146;14.024;2023-05-20T09:06:22;36.50;;;22.98;;
71959;SDS011;59832;51.146;14.024;2023-05-20T09:08:49;33.80;;;22.23;;
71959;SDS011;59832;51.146;14.024;2023-05-20T09:11:17;33.47;;;21.48;;
71959;SDS011;59832;51.146;14.024;2023-05-20T09:13:44;28.50;;;20.30;;
71959;SDS011;59832;51.146;14.024;2023-05-20T09:16:11;30.77;;;19.37;;
71959;SDS011;59832;51.146;14.024;2023-05-20T09:18:38;27.30;;;19.08;;
71959;SDS011;59832;51.146;14.024;2023-05-20T09:21:05;28.98;;;18.65;;
71959;SDS011;59832;51.146;14.024;2023-05-20T09:23:32;31.43;;;18.43;;
71959;SDS011;59832;51.146;14.024;2023-05-20T09:26:02;30.40;;;19.05;;
71959;SDS011;59832;51.146;14.024;2023-05-20T09:28:29;26.10;;;18.70;;
71959;SDS011;59832;51.146;14.024;2023-05-20T09:30:59;28.67;;;18.30;;
71959;SDS011;59832;51.146;14.024;2023-05-20T09:33:26;25.30;;;17.95;;
71959;SDS011;59832;51.146;14.024;2023-05-20T09:36:06;24.95;;;17.83;;
71959;SDS011;59832;51.146;14.024;2023-05-20T09:38:35;29.08;;;19.15;;
71959;SDS011;59832;51.146;14.024;2023-05-20T09:41:09;26.45;;;18.80;;
71959;SDS011;59832;51.146;14.024;2023-05-20T09:43:38;31.40;;;18.15;;
71959;SDS011;59832;51.146;14.024;2023-05-20T09:46:06;26.85;;;18.98;;
71959;SDS011;59832;51.146;14.024;2023-05-20T09:48:36;29.65;;;19.63;;
71959;SDS011;59832;51.146;14.024;2023-05-20T09:51:03;27.85;;;18.45;;
71959;SDS011;59832;51.146;14.024;2023-05-20T09:53:31;26.65;;;18.52;;
71959;SDS011;59832;51.146;14.024;2023-05-20T09:55:57;25.98;;;18.52;;
71959;SDS011;59832;51.146;14.024;2023-05-20T09:58:24;27.57;;;17.97;;
71959;SDS011;59832;51.146;14.024;2023-05-20T10:00:51;29.17;;;17.98;;
71959;SDS011;59832;51.146;14.024;2023-05-20T10:03:20;27.23;;;18.73;;
71959;SDS011;59832;51.146;14.024;2023-05-20T10:05:55;27.98;;;17.80;;
71959;SDS011;59832;51.146;14.024;2023-05-20T10:11:28;24.63;;;18.55;;
71959;SDS011;59832;51.146;14.024;2023-05-20T10:14:08;24.55;;;17.98;;
71959;SDS011;59832;51.146;14.024;2023-05-20T10:19:43;25.80;;;17.42;;
71959;SDS011;59832;51.146;14.024;2023-05-20T10:22:10;26.03;;;17.30;;
71959;SDS011;59832;51.146;14.024;2023-05-20T10:24:38;26.95;;;17.52;;
71959;SDS011;59832;51.146;14.024;2023-05-20T10:27:11;27.65;;;17.38;;
71959;SDS011;59832;51.146;14.024;2023-05-20T10:29:48;24.55;;;16.65;;
71959;SDS011;59832;51.146;14.024;2023-05-20T10:32:47;22.98;;;16.80;;
71959;SDS011;59832;51.146;14.024;2023-05-20T10:35:19;23.48;;;17.15;;
71959;SDS011;59832;51.146;14.024;2023-05-20T10:37:47;21.17;;;15.77;;
71959;SDS011;59832;51.146;14.024;2023-05-20T10:40:14;22.10;;;16.05;;
71959;SDS011;59832;51.146;14.024;2023-05-20T10:42:43;25.00;;;16.40;;
71959;SDS011;59832;51.146;14.024;2023-05-20T10:45:10;21.98;;;16.20;;
71959;SDS011;59832;51.146;14.024;2023-05-20T10:47:41;23.73;;;16.10;;
71959;SDS011;59832;51.146;14.024;2023-05-20T10:50:25;21.73;;;15.82;;
71959;SDS011;59832;51.146;14.024;2023-05-20T10:53:01;20.65;;;16.48;;
71959;SDS011;59832;51.146;14.024;2023-05-20T10:55:34;21.17;;;15.73;;
71959;SDS011;59832;51.146;14.024;2023-05-20T10:58:02;22.95;;;16.23;;
71959;SDS011;59832;51.146;14.024;2023-05-20T11:00:29;23.75;;;16.90;;
71959;SDS011;59832;51.146;14.024;2023-05-20T11:02:56;22.07;;;15.97;;
71959;SDS011;59832;51.146;14.024;2023-05-20T11:05:23;20.17;;;15.18;;
71959;SDS011;59832;51.146;14.024;2023-05-20T11:07:59;22.92;;;15.95;;
71959;SDS011;59832;51.146;14.024;2023-05-20T11:10:27;21.45;;;15.57;;
71959;SDS011;59832;51.146;14.024;2023-05-20T11:12:54;19.83;;;14.60;;
71959;SDS011;59832;51.146;14.024;2023-05-20T11:15:22;20.40;;;15.25;;
71959;SDS011;59832;51.146;14.024;2023-05-20T11:17:50;19.15;;;15.27;;
71959;SDS011;59832;51.146;14.024;2023-05-20T11:20:21;22.25;;;15.07;;
71959;SDS011;59832;51.146;14.024;2023-05-20T11:22:52;21.50;;;15.88;;
71959;SDS011;59832;51.146;14.024;2023-05-20T11:25:19;21.35;;;14.70;;
71959;SDS011;59832;51.146;14.024;2023-05-20T11:27:48;23.42;;;15.88;;
71959;SDS011;59832;51.146;14.024;2023-05-20T11:30:15;21.65;;;15.70;;
71959;SDS011;59832;51.146;14.024;2023-05-20T11:32:44;22.80;;;15.45;;
71959;SDS011;59832;51.146;14.024;2023-05-20T11:35:22;21.02;;;14.45;;
71959;SDS011;59832;51.146;14.024;2023-05-20T11:38:04;20.98;;;15.15;;
71959;SDS011;59832;51.146;14.024;2023-05-20T11:40:32;20.23;;;15.20;;
71959;SDS011;59832;51.146;14.024;2023-05-20T11:43:14;20.92;;;16.02;;
71959;SDS011;59832;51.146;14.024;2023-05-20T11:45:41;21.88;;;16.05;;
71959;SDS011;59832;51.146;14.024;2023-05-20T11:48:09;22.85;;;15.75;;
71959;SDS011;59832;51.146;14.024;2023-05-20T11:50:42;19.15;;;14.82;;
71959;SDS011;59832;51.146;14.024;2023-05-20T11:53:15;19.63;;;14.93;;
71959;SDS011;59832;51.146;14.024;2023-05-20T11:55:44;19.42;;;15.10;;
71959;SDS011;59832;51.146;14.024;2023-05-20T11:58:19;19.98;;;14.98;;
71959;SDS011;59832;51.146;14.024;2023-05-20T12:00:47;20.17;;;15.00;;
71959;SDS011;59832;51.146;14.024;2023-05-20T12:03:22;18.52;;;14.32;;
71959;SDS011;59832;51.146;14.024;2023-05-20T12:05:49;19.27;;;14.63;;
71959;SDS011;59832;51.146;14.024;2023-05-20T12:08:18;18.25;;;14.15;;
71959;SDS011;59832;51.146;14.024;2023-05-20T12:10:45;18.63;;;14.70;;
71959;SDS011;59832;51.146;14.024;2023-05-20T12:13:12;17.92;;;14.63;;
71959;SDS011;59832;51.146;14.024;2023-05-20T12:15:38;18.42;;;13.60;;
71959;SDS011;59832;51.146;14.024;2023-05-20T12:18:06;18.98;;;14.90;;
71959;SDS011;59832;51.146;14.024;2023-05-20T12:20:33;19.17;;;14.68;;
71959;SDS011;59832;51.146;14.024;2023-05-20T12:23:00;21.50;;;15.40;;
71959;SDS011;59832;51.146;14.024;2023-05-20T12:25:26;18.67;;;15.65;;
71959;SDS011;59832;51.146;14.024;2023-05-20T12:27:54;22.42;;;15.50;;
71959;SDS011;59832;51.146;14.024;2023-05-20T12:35:16;23.80;;;15.50;;
71959;SDS011;59832;51.146;14.024;2023-05-20T12:37:43;20.80;;;15.85;;
71959;SDS011;59832;51.146;14.024;2023-05-20T12:40:10;20.95;;;15.30;;
71959;SDS011;59832;51.146;14.024;2023-05-20T12:42:38;20.42;;;14.68;;
71959;SDS011;59832;51.146;14.024;2023-05-20T12:45:05;15.43;;;13.70;;
71959;SDS011;59832;51.146;14.024;2023-05-20T12:47:33;16.40;;;13.65;;
71959;SDS011;59832;51.146;14.024;2023-05-20T12:50:00;17.70;;;14.48;;
71959;SDS011;59832;51.146;14.024;2023-05-20T12:52:27;23.70;;;15.20;;
71959;SDS011;59832;51.146;14.024;2023-05-20T12:54:54;17.30;;;14.75;;
71959;SDS011;59832;51.146;14.024;2023-05-20T12:57:24;15.35;;;13.70;;
71959;SDS011;59832;51.146;14.024;2023-05-20T12:59:51;16.65;;;13.63;;
71959;SDS011;59832;51.146;14.024;2023-05-20T13:02:17;19.77;;;14.00;;
71959;SDS011;59832;51.146;14.024;2023-05-20T13:04:44;22.17;;;15.35;;
71959;SDS011;59832;51.146;14.024;2023-05-20T13:07:10;18.87;;;14.40;;
71959;SDS011;59832;51.146;14.024;2023-05-20T13:09:37;18.25;;;13.60;;
71959;SDS011;59832;51.146;14.024;2023-05-20T13:12:04;18.27;;;13.88;;
71959;SDS011;59832;51.146;14.024;2023-05-20T13:14:30;18.30;;;14.73;;
71959;SDS011;59832;51.146;14.024;2023-05-20T13:16:57;19.60;;;13.98;;
71959;SDS011;59832;51.146;14.024;2023-05-20T13:19:24;18.80;;;13.85;;
71959;SDS011;59832;51.146;14.024;2023-05-20T13:21:50;16.35;;;13.00;;
71959;SDS011;59832;51.146;14.024;2023-05-20T13:24:19;16.08;;;13.20;;
71959;SDS011;59832;51.146;14.024;2023-05-20T13:26:45;14.27;;;12.47;;
71959;SDS011;59832;51.146;14.024;2023-05-20T13:29:12;16.38;;;11.77;;
71959;SDS011;59832;51.146;14.024;2023-05-20T13:31:39;16.70;;;12.95;;
71959;SDS011;59832;51.146;14.024;2023-05-20T13:34:05;18.77;;;13.23;;
71959;SDS011;59832;51.146;14.024;2023-05-20T13:36:32;16.43;;;12.80;;
71959;SDS011;59832;51.146;14.024;2023-05-20T13:38:58;16.02;;;13.35;;
71959;SDS011;59832;51.146;14.024;2023-05-20T13:41:25;16.10;;;13.18;;
71959;SDS011;59832;51.146;14.024;2023-05-20T13:43:51;19.17;;;13.45;;
71959;SDS011;59832;51.146;14.024;2023-05-20T13:46:18;17.57;;;13.53;;
71959;SDS011;59832;51.146;14.024;2023-05-20T13:48:45;18.30;;;12.95;;
71959;SDS011;59832;51.146;14.024;2023-05-20T13:51:11;19.07;;;13.30;;
71959;SDS011;59832;51.146;14.024;2023-05-20T13:53:38;18.10;;;12.77;;
71959;SDS011;59832;51.146;14.024;2023-05-20T13:56:05;19.00;;;13.05;;
71959;SDS011;59832;51.146;14.024;2023-05-20T13:58:34;17.65;;;12.70;;
71959;SDS011;59832;51.146;14.024;2023-05-20T14:01:02;14.63;;;11.77;;
71959;SDS011;59832;51.146;14.024;2023-05-20T14:03:30;16.27;;;12.50;;
71959;SDS011;59832;51.146;14.024;2023-05-20T14:05:58;15.35;;;12.32;;
71959;SDS011;59832;51.146;14.024;2023-05-20T14:08:26;19.80;;;13.77;;
71959;SDS011;59832;51.146;14.024;2023-05-20T14:10:52;15.90;;;12.60;;
71959;SDS011;59832;51.146;14.024;2023-05-20T14:13:20;14.55;;;11.50;;
71959;SDS011;59832;51.146;14.024;2023-05-20T14:15:47;16.42;;;13.07;;
71959;SDS011;59832;51.146;14.024;2023-05-20T14:18:18;16.02;;;12.55;;
71959;SDS011;59832;51.146;14.024;2023-05-20T14:20:45;18.58;;;12.32;;
71959;SDS011;59832;51.146;14.024;2023-05-20T14:23:12;15.60;;;12.25;;
71959;SDS011;59832;51.146;14.024;2023-05-20T14:25:39;13.93;;;11.50;;
71959;SDS011;59832;51.146;14.024;2023-05-20T14:28:06;20.47;;;12.40;;
71959;SDS011;59832;51.146;14.024;2023-05-20T14:30:32;17.03;;;12.40;;
71959;SDS011;59832;51.146;14.024;2023-05-20T14:35:26;16.52;;;12.20;;
71959;SDS011;59832;51.146;14.024;2023-05-20T14:37:52;17.57;;;12.27;;
71959;SDS011;59832;51.146;14.024;2023-05-20T14:40:19;15.05;;;11.68;;
71959;SDS011;59832;51.146;14.024;2023-05-20T14:42:45;15.30;;;12.90;;
71959;SDS011;59832;51.146;14.024;2023-05-20T14:45:12;17.17;;;13.23;;
71959;SDS011;59832;51.146;14.024;2023-05-20T14:47:38;18.33;;;13.47;;
71959;SDS011;59832;51.146;14.024;2023-05-20T14:50:05;19.33;;;12.95;;
71959;SDS011;59832;51.146;14.024;2023-05-20T14:54:59;17.20;;;12.90;;
71959;SDS011;59832;51.146;14.024;2023-05-20T14:57:25;14.25;;;11.80;;
71959;SDS011;59832;51.146;14.024;2023-05-20T14:59:52;16.83;;;13.05;;
71959;SDS011;59832;51.146;14.024;2023-05-20T15:02:18;17.92;;;13.10;;
71959;SDS011;59832;51.146;14.024;2023-05-20T15:04:45;16.08;;;12.88;;
71959;SDS011;59832;51.146;14.024;2023-05-20T15:07:13;16.92;;;12.80;;
71959;SDS011;59832;51.146;14.024;2023-05-20T15:12:07;18.35;;;13.00;;
71959;SDS011;59832;51.146;14.024;2023-05-20T15:14:34;15.07;;;13.07;;
71959;SDS011;59832;51.146;14.024;2023-05-20T15:17:01;16.63;;;13.87;;
71959;SDS011;59832;51.146;14.024;2023-05-20T15:19:29;20.45;;;13.77;;
71959;SDS011;59832;51.146;14.024;2023-05-20T15:21:58;15.30;;;13.52;;
71959;SDS011;59832;51.146;14.024;2023-05-20T15:24:24;17.38;;;12.75;;
71959;SDS011;59832;51.146;14.024;2023-05-20T15:26:51;15.18;;;12.52;;
71959;SDS011;59832;51.146;14.024;2023-05-20T15:29:19;15.15;;;12.32;;
71959;SDS011;59832;51.146;14.024;2023-05-20T15:31:46;15.50;;;12.45;;
71959;SDS011;59832;51.146;14.024;2023-05-20T15:34:12;14.80;;;12.68;;
71959;SDS011;59832;51.146;14.024;2023-05-20T15:36:39;13.88;;;11.90;;
71959;SDS011;59832;51.146;14.024;2023-05-20T15:39:05;16.23;;;13.95;;
71959;SDS011;59832;51.146;14.024;2023-05-20T15:41:32;20.63;;;14.07;;
71959;SDS011;59832;51.146;14.024;2023-05-20T15:43:58;23.40;;;15.63;;
71959;SDS011;59832;51.146;14.024;2023-05-20T15:46:25;20.83;;;14.35;;
71959;SDS011;59832;51.146;14.024;2023-05-20T15:48:52;17.27;;;14.00;;
71959;SDS011;59832;51.146;14.024;2023-05-20T15:51:21;16.60;;;13.13;;
71959;SDS011;59832;51.146;14.024;2023-05-20T15:53:48;14.40;;;12.90;;
71959;SDS011;59832;51.146;14.024;2023-05-20T15:56:14;17.50;;;12.50;;
71959;SDS011;59832;51.146;14.024;2023-05-20T15:58:41;15.05;;;11.73;;
71959;SDS011;59832;51.146;14.024;2023-05-20T16:01:07;16.23;;;12.95;;
71959;SDS011;59832;51.146;14.024;2023-05-20T16:03:34;14.80;;;12.30;;
71959;SDS011;59832;51.146;14.024;2023-05-20T16:06:00;13.63;;;11.68;;
71959;SDS011;59832;51.146;14.024;2023-05-20T16:08:27;16.13;;;12.03;;
71959;SDS011;59832;51.146;14.024;2023-05-20T16:13:21;16.92;;;12.82;;
71959;SDS011;59832;51.146;14.024;2023-05-20T16:15:48;15.63;;;12.95;;
71959;SDS011;59832;51.146;14.024;2023-05-20T16:18:16;16.05;;;12.48;;
71959;SDS011;59832;51.146;14.024;2023-05-20T16:20:43;15.25;;;13.30;;
71959;SDS011;59832;51.146;14.024;2023-05-20T16:23:09;18.55;;;12.68;;
71959;SDS011;59832;51.146;14.024;2023-05-20T16:25:36;15.57;;;13.50;;
71959;SDS011;59832;51.146;14.024;2023-05-20T16:28:02;17.63;;;13.88;;
71959;SDS011;59832;51.146;14.024;2023-05-20T16:30:29;15.40;;;13.40;;
71959;SDS011;59832;51.146;14.024;2023-05-20T16:32:55;19.65;;;13.70;;
71959;SDS011;59832;51.146;14.024;2023-05-20T16:35:22;15.27;;;12.80;;
71959;SDS011;59832;51.146;14.024;2023-05-20T16:37:48;13.87;;;11.60;;
71959;SDS011;59832;51.146;14.024;2023-05-20T16:40:15;15.45;;;12.05;;
71959;SDS011;59832;51.146;14.024;2023-05-20T16:42:41;18.33;;;11.68;;
71959;SDS011;59832;51.146;14.024;2023-05-20T16:45:09;13.38;;;11.98;;
71959;SDS011;59832;51.146;14.024;2023-05-20T16:47:36;11.27;;;10.18;;
71959;SDS011;59832;51.146;14.024;2023-05-20T16:50:03;11.35;;;10.15;;
71959;SDS011;59832;51.146;14.024;2023-05-20T16:54:58;11.32;;;10.00;;
71959;SDS011;59832;51.146;14.024;2023-05-20T16:57:28;12.32;;;9.23;;
71959;SDS011;59832;51.146;14.024;2023-05-20T16:59:54;10.73;;;8.80;;
71959;SDS011;59832;51.146;14.024;2023-05-20T17:02:21;9.57;;;8.50;;
71959;SDS011;59832;51.146;14.024;2023-05-20T17:04:47;9.43;;;8.53;;
71959;SDS011;59832;51.146;14.024;2023-05-20T17:07:14;10.80;;;8.68;;
71959;SDS011;59832;51.146;14.024;2023-05-20T17:09:41;10.77;;;9.67;;
71959;SDS011;59832;51.146;14.024;2023-05-20T17:12:07;15.65;;;9.10;;
71959;SDS011;59832;51.146;14.024;2023-05-20T17:14:33;10.63;;;9.63;;
71959;SDS011;59832;51.146;14.024;2023-05-20T17:17:00;11.75;;;9.45;;
71959;SDS011;59832;51.146;14.024;2023-05-20T17:19:27;9.30;;;8.30;;
71959;SDS011;59832;51.146;14.024;2023-05-20T17:21:56;10.95;;;9.77;;
71959;SDS011;59832;51.146;14.024;2023-05-20T17:24:22;13.95;;;10.23;;
71959;SDS011;59832;51.146;14.024;2023-05-20T17:26:49;11.67;;;10.47;;
71959;SDS011;59832;51.146;14.024;2023-05-20T17:29:16;14.25;;;10.50;;
71959;SDS011;59832;51.146;14.024;2023-05-20T17:31:43;16.27;;;11.00;;
71959;SDS011;59832;51.146;14.024;2023-05-20T17:34:09;11.98;;;10.13;;
71959;SDS011;59832;51.146;14.024;2023-05-20T17:36:36;12.73;;;10.60;;
71959;SDS011;59832;51.146;14.024;2023-05-20T17:39:03;13.68;;;11.02;;
71959;SDS011;59832;51.146;14.024;2023-05-20T17:41:29;16.40;;;11.63;;
71959;SDS011;59832;51.146;14.024;2023-05-20T17:43:56;16.10;;;10.40;;
71959;SDS011;59832;51.146;14.024;2023-05-20T17:46:22;12.10;;;10.27;;
71959;SDS011;59832;51.146;14.024;2023-05-20T17:48:49;13.20;;;10.20;;
71959;SDS011;59832;51.146;14.024;2023-05-20T17:51:15;16.38;;;10.75;;
71959;SDS011;59832;51.146;14.024;2023-05-20T17:53:42;13.05;;;11.35;;
71959;SDS011;59832;51.146;14.024;2023-05-20T17:56:08;15.80;;;11.20;;
71959;SDS011;59832;51.146;14.024;2023-05-20T17:58:35;18.40;;;12.65;;
71959;SDS011;59832;51.146;14.024;2023-05-20T18:01:01;14.97;;;11.67;;
71959;SDS011;59832;51.146;14.024;2023-05-20T18:03:28;12.80;;;11.43;;
71959;SDS011;59832;51.146;14.024;2023-05-20T18:05:55;14.38;;;11.25;;
71959;SDS011;59832;51.146;14.024;2023-05-20T18:08:22;15.98;;;11.45;;
71959;SDS011;59832;51.146;14.024;2023-05-20T18:10:50;12.07;;;10.77;;
71959;SDS011;59832;51.146;14.024;2023-05-20T18:13:17;13.35;;;11.65;;
71959;SDS011;59832;51.146;14.024;2023-05-20T18:15:43;14.27;;;11.18;;
71959;SDS011;59832;51.146;14.024;2023-05-20T18:18:10;13.18;;;11.45;;
71959;SDS011;59832;51.146;14.024;2023-05-20T18:20:37;15.70;;;11.73;;
71959;SDS011;59832;51.146;14.024;2023-05-20T18:23:04;16.97;;;12.23;;
71959;SDS011;59832;51.146;14.024;2023-05-20T18:25:31;16.15;;;12.48;;
71959;SDS011;59832;51.146;14.024;2023-05-20T18:27:57;17.57;;;13.37;;
71959;SDS011;59832;51.146;14.024;2023-05-20T18:30:24;14.13;;;12.63;;
71959;SDS011;59832;51.146;14.024;2023-05-20T18:32:50;18.13;;;13.50;;
71959;SDS011;59832;51.146;14.024;2023-05-20T18:35:18;17.63;;;13.50;;
71959;SDS011;59832;51.146;14.024;2023-05-20T18:37:44;16.08;;;13.23;;